Time;durP1;ratioP1;P1;durP2;ratioP2;P2;SDS_P1;SDS_P2;PMS_P1;PMS_P2;Temp;Humidity;BMP_temperature;BMP_pressure;BME280_temperature;BME280_humidity;BME280_pressure;Samples;Min_cycle;Max_cycle;Signal;HPM_P1;HPM_P2
2022/03/05 00:04:52;;;;;;;35.80;12.83;;;;;;;0.38;82.91;101572.09;5046990;55;1138834;-71
2022/03/05 00:09:58;;;;;;;32.40;10.87;;;;;;;0.25;83.46;101568.87;5047077;56;1138907;-71
2022/03/05 00:15:05;;;;;;;29.33;10.80;;;;;;;0.22;83.86;101558.95;5046918;56;1138756;-72
2022/03/05 00:20:11;;;;;;;24.57;10.77;;;;;;;0.23;84.36;101561.53;5047006;55;1138801;-71
2022/03/05 00:25:17;;;;;;;37.60;14.95;;;;;;;0.31;84.42;101563.97;5039546;56;1139088;-71
2022/03/05 00:30:23;;;;;;;39.63;14.33;;;;;;;0.37;84.34;101569.52;5035541;56;1139042;-72
2022/03/05 00:35:30;;;;;;;33.20;13.63;;;;;;;0.38;84.14;101570.80;5045081;55;1138955;-71
2022/03/05 00:40:35;;;;;;;35.60;14.03;;;;;;;0.33;83.90;101569.56;5132698;54;1139018;-70
2022/03/05 00:45:41;;;;;;;31.33;11.33;;;;;;;0.26;83.87;101561.48;5132394;54;1139169;-71
2022/03/05 00:50:48;;;;;;;35.93;14.47;;;;;;;0.30;83.84;101568.35;5133591;54;1139110;-70
2022/03/05 00:55:54;;;;;;;35.80;12.97;;;;;;;0.25;83.47;101568.01;5133823;54;1139083;-71
2022/03/05 01:01:00;;;;;;;38.67;12.55;;;;;;;0.21;83.67;101571.10;5133630;54;1139000;-71
2022/03/05 01:06:06;;;;;;;25.33;10.43;;;;;;;0.14;83.46;101566.05;5133442;54;1138947;-71
2022/03/05 01:11:15;;;;;;;29.77;11.17;;;;;;;0.10;83.42;101570.89;5134360;54;1138957;-70
2022/03/05 01:16:20;;;;;;;41.87;16.23;;;;;;;0.06;83.52;101560.11;5134283;54;1138985;-70
2022/03/05 01:21:27;;;;;;;55.90;18.37;;;;;;;-0.02;82.96;101556.36;5093830;54;1139062;-71
2022/03/05 01:26:32;;;;;;;52.50;17.33;;;;;;;-0.16;82.86;101553.14;5133930;54;1141027;-71
2022/03/05 01:31:38;;;;;;;53.67;17.70;;;;;;;-0.21;83.21;101551.91;5133983;54;1140984;-71
2022/03/05 01:36:44;;;;;;;69.77;21.80;;;;;;;-0.22;83.30;101544.14;5107043;54;1141174;-71
2022/03/05 01:41:53;;;;;;;57.58;20.08;;;;;;;-0.30;82.99;101555.95;5039558;55;1141327;-73
2022/03/05 01:47:03;;;;;;;56.08;19.23;;;;;;;-0.38;83.09;101552.63;5058077;55;1141351;-71
2022/03/05 01:52:09;;;;;;;50.23;15.90;;;;;;;-0.41;83.28;101549.63;5049105;54;1141138;-70
2022/03/05 01:57:15;;;;;;;36.67;11.87;;;;;;;-0.51;82.90;101549.81;5048838;55;1141152;-70
2022/03/05 02:02:22;;;;;;;31.10;11.37;;;;;;;-0.60;82.93;101544.30;5048922;55;1141020;-71
2022/03/05 02:07:29;;;;;;;35.13;13.40;;;;;;;-0.60;83.50;101543.44;5049312;55;1141263;-71
2022/03/05 02:12:37;;;;;;;36.53;13.50;;;;;;;-0.60;83.70;101545.59;5048852;55;1141134;-71
2022/03/05 02:17:43;;;;;;;31.63;12.10;;;;;;;-0.60;83.65;101539.10;5048848;55;1141044;-70
2022/03/05 02:22:49;;;;;;;35.80;12.60;;;;;;;-0.56;83.87;101532.13;5049146;55;1140894;-71
2022/03/05 02:27:58;;;;;;;35.33;12.80;;;;;;;-0.54;83.64;101531.66;5048960;55;1140955;-71
2022/03/05 02:33:04;;;;;;;44.23;14.53;;;;;;;-0.54;83.70;101527.77;5049417;55;1141093;-71
2022/03/05 02:38:11;;;;;;;35.80;13.47;;;;;;;-0.56;83.50;101533.42;5093751;54;1141008;-71
2022/03/05 02:43:18;;;;;;;36.17;13.47;;;;;;;-0.64;82.97;101530.10;5146815;56;1140959;-71
2022/03/05 02:48:25;;;;;;;39.43;15.10;;;;;;;-0.81;82.45;101527.31;5162151;56;1140824;-71
2022/03/05 02:53:31;;;;;;;49.00;16.23;;;;;;;-0.98;82.51;101532.33;5162397;56;1141081;-71
2022/03/05 02:58:37;;;;;;;40.30;16.27;;;;;;;-1.21;82.53;101534.78;5162215;56;1140930;-71
2022/03/05 03:03:43;;;;;;;37.73;14.17;;;;;;;-1.34;82.97;101536.26;5121386;56;1141104;-71
2022/03/05 03:08:49;;;;;;;39.03;13.60;;;;;;;-1.47;83.26;101531.23;5162593;55;1140841;-70
2022/03/05 03:13:55;;;;;;;38.97;14.33;;;;;;;-1.39;84.21;101531.59;5162407;56;1141031;-71
2022/03/05 03:19:01;;;;;;;41.45;15.53;;;;;;;-1.25;84.60;101536.16;5162544;56;1140848;-71
2022/03/05 03:24:07;;;;;;;50.95;18.90;;;;;;;-1.26;83.59;101537.03;5162859;56;1141124;-70
2022/03/05 03:29:13;;;;;;;52.23;18.33;;;;;;;-1.39;83.05;101539.38;5162530;56;1140833;-71
2022/03/05 03:34:19;;;;;;;43.33;15.70;;;;;;;-1.49;83.23;101539.90;5162425;56;1141044;-70
2022/03/05 03:39:25;;;;;;;45.90;16.30;;;;;;;-1.45;83.62;101533.80;5126503;56;1140857;-71
2022/03/05 03:44:31;;;;;;;43.07;14.73;;;;;;;-1.49;83.22;101536.87;5120500;56;1140994;-71
2022/03/05 03:49:36;;;;;;;38.93;16.80;;;;;;;-1.49;83.61;101538.60;5077484;56;1141176;-71
2022/03/05 03:54:44;;;;;;;50.60;17.83;;;;;;;-1.44;83.94;101546.76;5055311;55;1141054;-72
2022/03/05 03:59:51;;;;;;;60.77;17.97;;;;;;;-1.38;83.81;101547.14;5035131;56;1140987;-71
2022/03/05 04:04:57;;;;;;;47.03;18.17;;;;;;;-1.48;82.61;101546.37;5038460;56;1141314;-70
2022/03/05 04:10:06;;;;;;;52.05;17.05;;;;;;;-1.74;81.89;101547.11;5037620;56;1140979;-71
2022/03/05 04:15:12;;;;;;;48.03;18.23;;;;;;;-1.79;82.92;101556.66;5037903;56;1141030;-71
2022/03/05 04:20:18;;;;;;;50.10;17.27;;;;;;;-1.71;83.60;101553.56;5038333;56;1141604;-70
2022/03/05 04:25:25;;;;;;;44.40;16.77;;;;;;;-1.66;83.27;101557.38;5047026;56;1141067;-71
2022/03/05 04:30:31;;;;;;;43.97;17.13;;;;;;;-1.75;82.78;101554.90;5047103;56;1141077;-70
2022/03/05 04:35:37;;;;;;;35.97;13.53;;;;;;;-1.73;83.34;101551.42;5054904;56;1141027;-71
2022/03/05 04:40:43;;;;;;;36.27;14.73;;;;;;;-1.78;82.70;101552.75;5131575;55;1141571;-71
2022/03/05 04:45:50;;;;;;;39.73;14.67;;;;;;;-1.85;82.62;101550.26;5131408;55;1140924;-71
2022/03/05 04:50:55;;;;;;;49.43;16.53;;;;;;;-1.91;82.83;101558.08;5131818;55;1140973;-70
2022/03/05 04:56:02;;;;;;;59.97;22.20;;;;;;;-2.01;82.40;101558.63;5131849;55;1141087;-70
2022/03/05 05:01:07;;;;;;;56.23;19.80;;;;;;;-1.98;83.40;101556.41;5129394;55;1141594;-70
2022/03/05 05:06:13;;;;;;;57.40;20.63;;;;;;;-1.92;83.59;101552.04;5045295;55;1140963;-71
2022/03/05 05:11:20;;;;;;;61.47;23.17;;;;;;;-1.81;83.71;101561.86;5047348;54;1141109;-71
2022/03/05 05:16:26;;;;;;;54.20;21.10;;;;;;;-1.77;83.56;101568.73;5047060;55;1141050;-71
2022/03/05 05:21:33;;;;;;;50.28;19.10;;;;;;;-1.75;82.98;101565.27;5099985;55;1141033;-71
2022/03/05 05:26:38;;;;;;;57.00;19.87;;;;;;;-1.76;83.07;101564.41;5131750;55;1141154;-71
2022/03/05 05:31:44;;;;;;;71.57;22.87;;;;;;;-1.78;83.01;101555.35;5131144;55;1140866;-71
2022/03/05 05:36:50;;;;;;;63.15;19.27;;;;;;;-1.71;83.08;101566.97;5098430;54;1140907;-71
2022/03/05 05:41:56;;;;;;;61.97;22.10;;;;;;;-1.74;82.46;101570.45;4990786;55;1141315;-72
2022/03/05 05:47:02;;;;;;;75.70;22.60;;;;;;;-2.02;81.04;101572.89;4989118;55;1140999;-71
2022/03/05 05:52:08;;;;;;;79.57;29.70;;;;;;;-2.26;81.10;101582.58;5009941;55;1141035;-71
2022/03/05 05:57:14;;;;;;;73.67;28.27;;;;;;;-2.25;82.36;101587.33;4961661;56;1141269;-72
2022/03/05 06:02:21;;;;;;;83.90;27.40;;;;;;;-2.21;82.34;101587.30;4961551;57;1140944;-71
2022/03/05 06:07:27;;;;;;;70.90;22.83;;;;;;;-2.40;81.74;101589.59;4961560;57;1141091;-71
2022/03/05 06:12:33;;;;;;;45.03;16.17;;;;;;;-2.57;82.22;101596.19;4979711;56;1141210;-71
2022/03/05 06:17:44;;;;;;;50.80;17.73;;;;;;;-2.63;83.22;101588.91;5052507;56;1140914;-71
2022/03/05 06:22:50;;;;;;;53.33;13.50;;;;;;;-2.62;83.88;101599.70;5053855;56;1140970;-71
2022/03/05 06:27:56;;;;;;;33.65;10.25;;;;;;;-2.64;83.91;101604.02;4968985;57;1141211;-74
2022/03/05 06:33:02;;;;;;;60.33;19.60;;;;;;;-2.65;84.06;101621.72;5025984;56;1141154;-71
2022/03/05 06:38:08;;;;;;;47.53;16.57;;;;;;;-2.61;84.46;101611.78;5054254;56;1141170;-71
2022/03/05 06:43:15;;;;;;;58.07;19.63;;;;;;;-2.41;85.03;101612.48;5094024;56;1140979;-71
2022/03/05 06:48:20;;;;;;;59.37;20.60;;;;;;;-2.37;84.90;101620.67;5117452;55;1140915;-71
2022/03/05 06:53:27;;;;;;;51.17;18.50;;;;;;;-2.27;85.49;101622.75;5096063;54;1141147;-71
2022/03/05 06:58:33;;;;;;;47.98;17.85;;;;;;;-2.08;86.29;101625.63;5083065;54;1140907;-71
2022/03/05 07:03:39;;;;;;;62.87;22.30;;;;;;;-1.83;87.16;101629.72;5118235;55;1140916;-71
2022/03/05 07:08:45;;;;;;;57.40;22.60;;;;;;;-1.51;88.13;101627.25;5095804;56;1140823;-71
2022/03/05 07:13:51;;;;;;;45.97;15.10;;;;;;;-1.01;89.79;101626.69;5106010;55;1141084;-71
2022/03/05 07:18:57;;;;;;;46.50;17.23;;;;;;;-0.65;89.42;101621.91;5103270;56;1145302;-72
2022/03/05 07:24:04;;;;;;;39.38;13.28;;;;;;;-0.46;89.35;101607.30;5110147;55;1140998;-71
2022/03/05 07:29:09;;;;;;;39.67;14.20;;;;;;;-0.10;88.34;101623.23;5110890;54;1140914;-72
2022/03/05 07:34:16;;;;;;;30.20;12.07;;;;;;;-0.16;87.60;101624.20;5181889;54;1141220;-71
2022/03/05 07:39:21;;;;;;;27.63;11.43;;;;;;;-0.14;87.20;101630.20;5115216;54;1141096;-71
2022/03/05 07:44:27;;;;;;;21.30;8.83;;;;;;;-0.18;87.55;101637.66;5131564;55;1141010;-71
2022/03/05 07:49:33;;;;;;;20.80;8.43;;;;;;;-0.03;88.51;101636.56;5139948;56;1138701;-72
2022/03/05 07:54:39;;;;;;;21.73;7.53;;;;;;;0.19;89.71;101638.34;5182402;55;1138754;-73
2022/03/05 07:59:45;;;;;;;14.83;7.17;;;;;;;0.42;88.74;101650.97;5182637;56;1136799;-72
2022/03/05 08:04:50;;;;;;;24.07;7.57;;;;;;;0.50;88.06;101649.94;5144730;56;1136767;-72
2022/03/05 08:09:56;;;;;;;18.17;6.63;;;;;;;0.74;89.73;101654.29;5194880;55;1137120;-72
2022/03/05 08:15:03;;;;;;;27.48;10.45;;;;;;;1.00;88.79;101650.28;5160984;55;1136660;-72
2022/03/05 08:20:10;;;;;;;20.88;9.95;;;;;;;1.17;88.62;101643.87;5180742;56;1138920;-72
2022/03/05 08:25:16;;;;;;;33.60;14.80;;;;;;;1.43;88.72;101632.88;5184374;54;1136603;-73
2022/03/05 08:30:22;;;;;;;25.25;8.65;;;;;;;1.48;87.48;101641.02;5181388;56;1138782;-72
2022/03/05 08:35:29;;;;;;;17.30;8.07;;;;;;;1.66;88.43;101645.82;5191581;55;1136665;-72
2022/03/05 08:40:35;;;;;;;12.87;6.17;;;;;;;1.74;86.34;101648.23;5119769;54;1136570;-71
2022/03/05 08:45:41;;;;;;;16.87;5.20;;;;;;;1.74;85.97;101651.70;5088540;56;1136727;-73
2022/03/05 08:50:47;;;;;;;15.73;6.23;;;;;;;1.80;86.04;101653.77;5109504;55;1136783;-72
2022/03/05 08:55:54;;;;;;;18.73;7.53;;;;;;;1.83;86.09;101651.09;5120129;55;1136659;-72
2022/03/05 09:01:01;;;;;;;18.92;7.47;;;;;;;2.01;86.54;101653.23;5110730;54;1136931;-72
2022/03/05 09:06:07;;;;;;;21.70;7.37;;;;;;;2.06;86.24;101657.47;5129718;55;1136828;-72
2022/03/05 09:11:12;;;;;;;24.00;6.97;;;;;;;2.16;85.68;101653.31;5131048;54;1136826;-72
2022/03/05 09:16:18;;;;;;;15.30;7.37;;;;;;;2.25;85.88;101664.40;5130586;55;1136969;-72
2022/03/05 09:21:24;;;;;;;14.13;5.57;;;;;;;2.41;84.80;101664.88;5063584;55;1136766;-71
2022/03/05 09:26:30;;;;;;;13.73;6.30;;;;;;;2.39;84.11;101663.60;5046238;56;1136772;-72
2022/03/05 09:31:35;;;;;;;20.10;6.13;;;;;;;2.28;83.56;101665.64;5046079;56;1136903;-72
2022/03/05 09:36:41;;;;;;;19.23;7.10;;;;;;;2.19;83.95;101664.54;5071968;54;1137051;-72
2022/03/05 09:41:47;;;;;;;11.37;4.97;;;;;;;2.23;83.35;101667.49;5091151;55;1136708;-72
2022/03/05 09:46:55;;;;;;;22.47;9.43;;;;;;;2.24;84.07;101663.13;5047156;55;1136811;-70
2022/03/05 09:52:01;;;;;;;15.97;7.17;;;;;;;2.37;83.76;101660.62;5055525;55;1136771;-71
2022/03/05 09:57:13;;;;;;;21.75;7.25;;;;;;;2.34;82.64;101668.07;5109745;54;1136819;-71
2022/03/05 10:02:20;;;;;;;18.47;5.93;;;;;;;2.43;83.34;101670.91;5109709;54;1136627;-71
2022/03/05 10:07:26;;;;;;;12.67;5.20;;;;;;;2.51;82.82;101672.86;5109766;54;1136824;-71
2022/03/05 10:12:35;;;;;;;22.57;7.47;;;;;;;2.59;82.16;101673.55;5109774;54;1136882;-71
2022/03/05 10:17:59;;;;;;;28.37;8.63;;;;;;;2.69;81.67;101671.08;5113568;54;1136777;-72
2022/03/05 10:23:09;;;;;;;11.80;7.23;;;;;;;2.77;80.54;101674.33;5196483;55;1136782;-71
2022/03/05 10:28:24;;;;;;;21.90;8.58;;;;;;;2.81;79.03;101664.66;5195551;56;1137335;-71
2022/03/05 10:33:40;;;;;;;19.27;5.23;;;;;;;2.89;79.71;101664.02;5189161;55;1136741;-71
2022/03/05 10:39:04;;;;;;;17.33;5.20;;;;;;;3.07;77.27;101652.17;5196139;55;1137040;-72
2022/03/05 10:44:15;;;;;;;11.07;4.93;;;;;;;3.25;78.13;101658.19;5158697;55;1136919;-71
2022/03/05 10:49:25;;;;;;;12.97;4.77;;;;;;;3.41;77.45;101643.75;5196770;55;1136872;-71
2022/03/05 10:54:42;;;;;;;11.83;4.33;;;;;;;3.38;75.31;101640.37;5042900;56;1137052;-71
2022/03/05 10:59:48;;;;;;;9.03;3.40;;;;;;;3.25;74.58;101642.50;5042013;56;1136666;-72
2022/03/05 11:04:56;;;;;;;3.93;2.30;;;;;;;3.07;74.28;101638.66;5042266;56;1134552;-71
2022/03/05 11:10:03;;;;;;;11.63;2.87;;;;;;;3.02;73.92;101637.09;5043689;56;1134490;-71
2022/03/05 11:15:10;;;;;;;6.20;2.50;;;;;;;3.01;72.84;101632.77;5042334;56;1136891;-72
2022/03/05 11:20:17;;;;;;;16.25;3.02;;;;;;;2.97;69.84;101635.05;4996596;56;1134712;-72
2022/03/05 11:25:27;;;;;;;10.70;4.33;;;;;;;3.04;71.97;101630.07;4907601;56;1136752;-71
2022/03/05 11:30:46;;;;;;;8.30;2.43;;;;;;;3.07;70.00;101624.28;5026337;57;1136688;-72
2022/03/05 11:35:55;;;;;;;5.33;3.50;;;;;;;3.10;68.62;101622.89;5030580;57;1134505;-72
2022/03/05 11:41:25;;;;;;;10.28;4.30;;;;;;;3.11;66.04;101622.44;4972855;57;1135010;-74
2022/03/05 11:46:30;;;;;;;95.43;39.10;;;;;;;3.15;67.03;101622.77;5119660;55;1136650;-71
2022/03/05 11:51:56;;;;;;;19.33;8.10;;;;;;;3.14;66.59;101617.98;5194986;55;1138993;-72
2022/03/05 11:57:14;;;;;;;9.75;4.53;;;;;;;3.16;67.26;101618.80;5201049;55;1136878;-72
2022/03/05 12:02:41;;;;;;;6.15;3.42;;;;;;;3.23;68.07;101617.30;5119902;55;1135076;-71
2022/03/05 12:07:46;;;;;;;6.47;2.93;;;;;;;3.29;67.08;101611.89;5129685;55;1135103;-71
2022/03/05 12:13:04;;;;;;;22.03;4.33;;;;;;;3.30;66.93;101612.30;5131856;55;1134635;-71
2022/03/05 12:18:14;;;;;;;8.93;3.65;;;;;;;3.24;67.24;101616.39;5118020;55;1136810;-71
2022/03/05 12:23:21;;;;;;;16.00;4.87;;;;;;;3.12;66.68;101618.48;5044093;56;1134993;-71
2022/03/05 12:28:28;;;;;;;13.70;6.43;;;;;;;3.10;67.56;101613.74;5044030;56;1136871;-72
2022/03/05 12:33:35;;;;;;;15.63;6.23;;;;;;;3.12;67.20;101618.92;5043358;56;1136881;-71
2022/03/05 12:38:41;;;;;;;10.97;4.27;;;;;;;3.12;66.11;101613.70;5149408;55;1136830;-72
2022/03/05 12:43:47;;;;;;;15.00;8.03;;;;;;;3.09;64.45;101615.09;5192811;54;1136924;-71
2022/03/05 12:48:53;;;;;;;8.60;5.53;;;;;;;3.04;63.65;101611.33;5135096;55;1136884;-73
2022/03/05 12:54:02;;;;;;;12.10;4.70;;;;;;;3.04;65.48;101599.56;5129756;55;1134587;-72
2022/03/05 12:59:09;;;;;;;17.15;6.12;;;;;;;3.04;63.85;101607.86;5163488;56;1136721;-72
2022/03/05 13:04:17;;;;;;;22.45;9.68;;;;;;;3.01;64.01;101602.27;5174257;55;1137024;-72
2022/03/05 13:09:28;;;;;;;12.25;3.33;;;;;;;2.97;62.94;101601.08;5108527;56;1137151;-72
2022/03/05 13:14:34;;;;;;;5.00;1.90;;;;;;;2.95;64.80;101600.27;5108501;56;1136825;-72
2022/03/05 13:19:39;;;;;;;10.90;2.33;;;;;;;2.93;64.41;101597.69;4997577;57;1134972;-71
2022/03/05 13:24:51;;;;;;;17.13;3.47;;;;;;;2.88;64.60;101593.07;5026905;57;1136774;-72
2022/03/05 13:29:58;;;;;;;7.23;2.10;;;;;;;2.87;65.42;101595.27;5030092;57;1136792;-71
2022/03/05 13:35:06;;;;;;;8.58;2.83;;;;;;;2.89;66.01;101593.92;5171657;56;1134610;-72
2022/03/05 13:40:14;;;;;;;28.52;3.17;;;;;;;2.90;65.89;101599.11;5107211;56;1134772;-71
2022/03/05 13:45:23;;;;;;;13.00;4.62;;;;;;;2.85;65.34;101586.62;5104279;57;1136831;-71
2022/03/05 13:50:29;;;;;;;8.80;3.30;;;;;;;2.85;65.64;101594.45;5069788;57;1136585;-71
2022/03/05 13:55:36;;;;;;;6.93;3.07;;;;;;;2.89;65.53;101593.92;5104057;57;1134719;-71
2022/03/05 14:00:41;;;;;;;12.10;4.17;;;;;;;2.90;65.08;101593.88;5190801;55;1134770;-71
2022/03/05 14:05:47;;;;;;;29.63;9.03;;;;;;;2.93;64.95;101588.99;5038468;55;1136730;-71
2022/03/05 14:10:55;;;;;;;8.80;3.57;;;;;;;2.99;65.27;101586.22;5195082;55;1136803;-71
2022/03/05 14:16:01;;;;;;;11.83;5.17;;;;;;;2.95;64.27;101585.89;5190043;55;1134520;-72
2022/03/05 14:21:11;;;;;;;9.40;3.60;;;;;;;2.90;63.77;101587.35;5131859;56;1136821;-71
2022/03/05 14:26:18;;;;;;;30.97;16.80;;;;;;;2.85;63.46;101589.68;4962344;55;1134748;-71
2022/03/05 14:31:24;;;;;;;22.47;9.60;;;;;;;2.79;63.71;101595.48;5109658;56;1138815;-72
2022/03/05 14:36:29;;;;;;;13.57;5.03;;;;;;;2.76;63.73;101598.16;4938917;56;1136538;-71
2022/03/05 14:41:34;;;;;;;4.83;3.20;;;;;;;2.76;64.15;101592.09;5155318;55;1136747;-71
2022/03/05 14:46:40;;;;;;;60.00;19.05;;;;;;;2.78;63.36;101598.12;5146944;54;1134531;-71
2022/03/05 14:51:48;;;;;;;15.03;6.47;;;;;;;2.75;62.48;101587.80;5131924;55;1138887;-71
2022/03/05 14:56:53;;;;;;;5.43;3.40;;;;;;;2.72;63.50;101583.95;5131734;55;1136679;-71
2022/03/05 15:01:59;;;;;;;19.57;5.63;;;;;;;2.71;63.13;101583.55;5135108;54;1134563;-71
2022/03/05 15:07:08;;;;;;;27.60;10.47;;;;;;;2.74;62.97;101584.77;5159131;56;1136839;-71
2022/03/05 15:12:14;;;;;;;13.95;5.15;;;;;;;2.74;62.21;101582.16;5156559;55;1139044;-71
2022/03/05 15:17:20;;;;;;;33.73;6.87;;;;;;;2.73;61.61;101588.28;5195600;55;1136854;-71
2022/03/05 15:22:25;;;;;;;5.80;3.50;;;;;;;2.65;62.50;101581.95;5195540;55;1137046;-71
2022/03/05 15:27:33;;;;;;;3.17;2.33;;;;;;;2.65;62.01;101588.48;5195517;55;1134833;-71
2022/03/05 15:32:39;;;;;;;20.23;3.07;;;;;;;2.54;61.60;101584.45;5043490;57;1134957;-71
2022/03/05 15:37:52;;;;;;;9.60;2.77;;;;;;;2.51;62.07;101588.00;5042430;57;1136860;-72
2022/03/05 15:42:54;;;;;;;6.50;2.70;;;;;;;2.44;61.35;101589.91;5025973;57;1134871;-71
2022/03/05 15:47:59;;;;;;;3.20;2.23;;;;;;;2.43;60.78;101589.53;5027608;57;1134622;-72
2022/03/05 15:53:05;;;;;;;111.80;37.60;;;;;;;2.39;60.86;101590.50;5030355;57;1134918;-72
2022/03/05 15:58:13;;;;;;;264.75;84.97;;;;;;;2.38;61.13;101584.88;5030208;57;1140980;-72
2022/03/05 16:03:18;;;;;;;41.45;14.25;;;;;;;2.41;61.42;101590.47;5030615;56;1141382;-71
2022/03/05 16:08:24;;;;;;;17.20;7.28;;;;;;;2.42;61.91;101591.73;5030339;57;1139076;-71
2022/03/05 16:13:29;;;;;;;39.40;14.13;;;;;;;2.50;62.50;101588.90;5023911;57;1136877;-71
2022/03/05 16:18:35;;;;;;;35.27;10.60;;;;;;;2.54;62.18;101594.45;5140834;55;1138907;-72
2022/03/05 16:23:44;;;;;;;56.03;17.03;;;;;;;2.55;62.48;101596.62;5143654;55;1138897;-72
2022/03/05 16:28:49;;;;;;;233.50;69.73;;;;;;;2.56;62.29;101591.36;5163902;55;1138799;-72
2022/03/05 16:33:55;;;;;;;498.20;174.07;;;;;;;2.52;62.33;101591.47;5128213;54;1140965;-72
2022/03/05 16:39:08;;;;;;;433.83;149.50;;;;;;;2.47;62.46;101594.20;5162945;55;1143189;-72
2022/03/05 16:44:08;;;;;;;185.87;60.67;;;;;;;2.51;62.82;101605.42;5107834;56;1147709;-72
2022/03/05 16:49:15;;;;;;;111.15;33.90;;;;;;;2.50;63.30;101605.88;5123350;54;1141110;-73
2022/03/05 16:54:21;;;;;;;115.72;33.33;;;;;;;2.49;62.87;101608.07;5195188;55;1140955;-72
2022/03/05 16:59:30;;;;;;;167.10;51.23;;;;;;;2.50;63.56;101605.88;5177210;54;1141157;-72
2022/03/05 17:04:37;;;;;;;177.57;58.07;;;;;;;2.52;63.17;101617.58;5122848;55;1141158;-73
2022/03/05 17:09:44;;;;;;;170.73;66.13;;;;;;;2.47;62.89;101620.30;5153183;54;1140847;-72
2022/03/05 17:14:50;;;;;;;165.70;55.47;;;;;;;2.45;62.67;101620.80;5155583;55;1140784;-70
2022/03/05 17:19:55;;;;;;;160.05;46.58;;;;;;;2.38;62.38;101616.20;5177685;55;1141128;-71
2022/03/05 17:25:01;;;;;;;72.73;21.73;;;;;;;2.35;62.69;101618.88;5187036;55;1141245;-73
2022/03/05 17:30:09;;;;;;;63.23;20.33;;;;;;;2.30;62.15;101620.75;5152906;54;1205405;-71
2022/03/05 17:35:16;;;;;;;103.62;38.80;;;;;;;2.22;61.40;101614.88;5189064;55;1138902;-70
2022/03/05 17:40:22;;;;;;;105.30;38.78;;;;;;;2.21;62.53;101611.86;5141471;55;1141011;-71
2022/03/05 17:45:28;;;;;;;121.30;41.23;;;;;;;2.22;62.87;101612.72;5153165;55;1140979;-73
2022/03/05 17:50:34;;;;;;;161.40;59.47;;;;;;;2.26;63.66;101615.22;5156938;55;1140916;-71
2022/03/05 17:55:39;;;;;;;158.77;57.20;;;;;;;2.26;63.70;101608.70;5169971;54;1141116;-72
2022/03/05 18:00:44;;;;;;;170.80;58.30;;;;;;;2.27;64.17;101608.25;5173497;55;1140998;-70
2022/03/05 18:05:50;;;;;;;188.33;70.90;;;;;;;2.19;64.53;101610.18;5185497;55;1141027;-70
2022/03/05 18:10:55;;;;;;;136.27;49.53;;;;;;;2.08;64.18;101603.49;5195245;55;1140733;-70
2022/03/05 18:16:02;;;;;;;246.97;79.57;;;;;;;1.98;64.43;101605.08;5182680;55;1140844;-70
2022/03/05 18:21:08;;;;;;;983.67;307.27;;;;;;;1.95;64.35;101607.75;5169875;55;1141112;-72
2022/03/05 18:26:14;;;;;;;1078.70;353.00;;;;;;;1.94;64.59;101613.86;5151659;55;1143037;-71
2022/03/05 18:31:20;;;;;;;377.87;106.17;;;;;;;1.85;64.42;101612.77;5148327;55;1144964;-69
2022/03/05 18:36:26;;;;;;;178.23;62.17;;;;;;;1.81;65.01;101612.45;5170543;55;1142886;-71
2022/03/05 18:41:32;;;;;;;203.37;74.50;;;;;;;1.83;64.94;101613.27;5194393;56;1140747;-70
2022/03/05 18:46:37;;;;;;;355.10;95.13;;;;;;;1.85;65.21;101608.84;5188966;55;1140897;-68
2022/03/05 18:51:43;;;;;;;170.67;62.80;;;;;;;1.84;65.00;101605.83;5190679;55;1140903;-71
2022/03/05 18:56:49;;;;;;;199.33;66.87;;;;;;;1.81;65.18;101608.09;5160652;56;1140980;-68
2022/03/05 19:01:55;;;;;;;237.90;84.60;;;;;;;1.83;65.82;101602.84;5173566;56;1140831;-73
2022/03/05 19:07:01;;;;;;;218.70;82.00;;;;;;;1.78;65.92;101613.82;5163283;56;1140770;-72
2022/03/05 19:12:07;;;;;;;263.77;89.13;;;;;;;1.68;66.37;101612.72;5184107;55;1140780;-70
2022/03/05 19:17:13;;;;;;;221.50;78.10;;;;;;;1.61;66.58;101606.39;5197881;55;1140969;-70
2022/03/05 19:22:19;;;;;;;267.70;101.85;;;;;;;1.51;66.69;101608.36;5161079;56;1140776;-71
2022/03/05 19:27:26;;;;;;;254.15;87.62;;;;;;;1.47;67.12;101605.41;5127683;54;1142873;-69
2022/03/05 19:32:32;;;;;;;244.15;81.08;;;;;;;1.50;67.84;101611.00;5167118;54;1140753;-71
2022/03/05 19:37:38;;;;;;;253.90;82.57;;;;;;;1.42;68.09;101608.55;5187016;54;1140755;-71
2022/03/05 19:42:44;;;;;;;277.37;87.67;;;;;;;1.41;68.15;101609.45;5187510;55;1140960;-70
2022/03/05 19:47:50;;;;;;;368.47;116.37;;;;;;;1.47;68.69;101611.06;5197925;55;1140777;-73
2022/03/05 19:52:57;;;;;;;346.67;108.50;;;;;;;1.51;69.00;101607.51;5193676;54;1143210;-70
2022/03/05 19:58:03;;;;;;;272.93;86.57;;;;;;;1.56;69.34;101613.00;5172367;54;1143212;-70
2022/03/05 20:03:09;;;;;;;285.07;101.20;;;;;;;1.59;69.46;101614.25;5198278;55;1140780;-69
2022/03/05 20:08:15;;;;;;;305.47;112.80;;;;;;;1.61;69.55;101612.91;5171302;55;1151248;-72
2022/03/05 20:13:21;;;;;;;284.97;102.20;;;;;;;1.58;69.37;101615.14;5180951;55;1143075;-70
2022/03/05 20:18:27;;;;;;;259.00;94.47;;;;;;;1.53;69.52;101614.38;5187200;55;1142988;-70
2022/03/05 20:23:33;;;;;;;251.93;86.63;;;;;;;1.49;69.01;101614.50;5191700;55;1141101;-70
2022/03/05 20:28:38;;;;;;;252.13;88.73;;;;;;;1.44;69.46;101612.44;5190968;56;1141118;-72
2022/03/05 20:33:44;;;;;;;283.60;99.93;;;;;;;1.40;69.76;101606.42;5164619;55;1141059;-71
2022/03/05 20:38:50;;;;;;;297.10;103.23;;;;;;;1.44;70.12;101621.11;5150051;55;1140908;-69
2022/03/05 20:43:56;;;;;;;311.87;101.70;;;;;;;1.41;70.18;101626.39;5132115;55;1143012;-72
2022/03/05 20:49:02;;;;;;;354.73;111.03;;;;;;;1.37;69.98;101633.88;5103822;56;1143078;-73
2022/03/05 20:54:08;;;;;;;158.93;52.00;;;;;;;1.28;69.70;101632.77;5113139;56;1142995;-71
2022/03/05 20:59:14;;;;;;;134.13;50.37;;;;;;;1.26;69.67;101631.48;5190324;55;1141091;-72
2022/03/05 21:04:19;;;;;;;136.90;49.13;;;;;;;1.23;69.87;101627.64;5141127;55;1141215;-72
2022/03/05 21:09:25;;;;;;;199.23;72.50;;;;;;;1.23;69.96;101631.55;5140742;55;1140947;-73
2022/03/05 21:14:30;;;;;;;134.45;51.77;;;;;;;1.13;70.12;101627.88;5161250;55;1256975;-70
2022/03/05 21:19:36;;;;;;;123.77;43.67;;;;;;;1.13;70.12;101627.88;5197842;55;1140913;-70
2022/03/05 21:24:44;;;;;;;129.40;49.40;;;;;;;1.15;70.35;101630.02;5197698;54;1141080;-73
2022/03/05 21:29:50;;;;;;;159.03;61.40;;;;;;;1.15;70.39;101626.09;5197738;55;1140874;-72
2022/03/05 21:34:55;;;;;;;150.73;57.67;;;;;;;1.15;70.65;101623.50;5197662;55;1141043;-71
2022/03/05 21:40:01;;;;;;;103.00;39.73;;;;;;;1.12;69.95;101620.50;5113012;55;1140912;-74
2022/03/05 21:45:08;;;;;;;87.30;33.90;;;;;;;1.09;69.78;101621.87;5110955;56;1141058;-71
2022/03/05 21:50:14;;;;;;;101.87;37.80;;;;;;;1.04;69.94;101628.50;5091514;55;1139003;-70
2022/03/05 21:55:21;;;;;;;102.62;33.60;;;;;;;1.03;70.23;101634.59;5110918;55;1140883;-70
2022/03/05 22:00:27;;;;;;;140.95;44.80;;;;;;;1.09;70.26;101641.84;5133951;55;1140861;-72
2022/03/05 22:05:33;;;;;;;129.30;40.97;;;;;;;1.14;70.75;101633.50;5197532;55;1141131;-70
2022/03/05 22:10:39;;;;;;;126.30;40.63;;;;;;;1.18;70.77;101632.56;5197533;54;1141216;-69
2022/03/05 22:15:45;;;;;;;42.53;18.77;;;;;;;1.09;70.55;101627.52;5196806;55;1140896;-68
2022/03/05 22:20:50;;;;;;;51.90;19.23;;;;;;;0.87;69.44;101627.12;5196636;55;1138991;-70
2022/03/05 22:25:56;;;;;;;64.40;24.20;;;;;;;0.84;68.95;101633.23;5196670;55;1139172;-71
2022/03/05 22:31:02;;;;;;;36.33;14.70;;;;;;;0.91;68.60;101631.38;5196336;55;1138816;-73
2022/03/05 22:36:08;;;;;;;148.00;49.33;;;;;;;0.86;68.42;101624.09;5179508;55;1138983;-71
2022/03/05 22:41:15;;;;;;;71.00;28.50;;;;;;;0.85;68.98;101624.98;5098957;56;1140874;-72
2022/03/05 22:46:21;;;;;;;79.97;29.87;;;;;;;0.84;69.16;101641.05;5091985;56;1138947;-70
2022/03/05 22:51:27;;;;;;;54.35;22.37;;;;;;;0.73;69.03;101632.59;5110129;56;1138806;-71
2022/03/05 22:56:32;;;;;;;97.93;34.00;;;;;;;0.70;69.85;101637.41;5109974;56;1138856;-71